Time;durP1;ratioP1;P1;durP2;ratioP2;P2;SDS_P1;SDS_P2;PMS_P1;PMS_P2;Temp;Humidity;BMP_temperature;BMP_pressure;BME280_temperature;BME280_humidity;BME280_pressure;Samples;Min_cycle;Max_cycle;Signal;HPM_P1;HPM_P2
2022/07/17 00:01:07;;;;;;;11.95;2.05;;;14.80;99.90;;;;;;5094607;28;20024;-77
2022/07/17 00:03:33;;;;;;;10.35;2.47;;;14.80;99.90;;;;;;5110012;28;20031;-77
2022/07/17 00:05:59;;;;;;;7.65;2.20;;;14.70;99.90;;;;;;5113637;28;20061;-77
2022/07/17 00:08:25;;;;;;;6.00;2.30;;;14.70;99.90;;;;;;5113215;28;20454;-76
2022/07/17 00:10:51;;;;;;;6.88;1.90;;;14.70;99.90;;;;;;5111507;28;20483;-77
2022/07/17 00:13:16;;;;;;;9.43;2.13;;;14.70;99.90;;;;;;5113265;28;20032;-77
2022/07/17 00:15:42;;;;;;;8.18;1.80;;;14.70;99.90;;;;;;5110462;28;20039;-78
2022/07/17 00:18:08;;;;;;;7.63;2.33;;;14.60;99.90;;;;;;5112907;28;20031;-75
2022/07/17 00:20:35;;;;;;;8.93;2.42;;;14.60;99.90;;;;;;5112378;28;20016;-75
2022/07/17 00:23:01;;;;;;;8.98;2.28;;;14.60;99.90;;;;;;5095083;28;20066;-79
2022/07/17 00:25:27;;;;;;;13.35;2.72;;;14.50;99.90;;;;;;5112812;28;20023;-79
2022/07/17 00:27:53;;;;;;;9.27;2.25;;;14.50;99.90;;;;;;5111729;28;20101;-78
2022/07/17 00:30:19;;;;;;;12.57;2.80;;;14.50;99.90;;;;;;5112356;28;20487;-78
2022/07/17 00:32:45;;;;;;;9.40;2.60;;;14.50;99.90;;;;;;5095054;28;20160;-79
2022/07/17 00:35:12;;;;;;;7.88;2.08;;;14.50;99.90;;;;;;5111019;28;20106;-78
2022/07/17 00:37:40;;;;;;;6.30;2.17;;;14.50;99.90;;;;;;5111008;28;20030;-76
2022/07/17 00:40:08;;;;;;;9.15;2.20;;;14.50;99.90;;;;;;5113088;28;20028;-76
2022/07/17 00:42:33;;;;;;;8.55;1.80;;;14.40;99.90;;;;;;5111747;28;20024;-77
2022/07/17 00:44:59;;;;;;;11.63;2.42;;;14.40;99.90;;;;;;5112898;28;20046;-78
2022/07/17 00:47:25;;;;;;;7.88;2.17;;;14.40;99.90;;;;;;5111623;28;20027;-77
2022/07/17 00:49:50;;;;;;;8.20;2.53;;;14.40;99.90;;;;;;5113086;28;20023;-77
2022/07/17 00:52:17;;;;;;;10.35;2.30;;;14.40;99.90;;;;;;5112968;28;20030;-77
2022/07/17 00:54:45;;;;;;;11.90;2.90;;;14.40;99.90;;;;;;5117065;28;20046;-77
2022/07/17 00:57:16;;;;;;;8.52;2.58;;;14.30;99.90;;;;;;5132322;28;20023;-77
2022/07/17 00:59:43;;;;;;;7.53;1.90;;;14.30;99.90;;;;;;5122323;28;20043;-77
2022/07/17 01:02:11;;;;;;;8.80;2.17;;;14.30;99.90;;;;;;5126181;28;20047;-77
2022/07/17 01:04:38;;;;;;;9.63;2.25;;;14.30;99.90;;;;;;5120470;28;20069;-77
2022/07/17 01:07:05;;;;;;;10.82;2.45;;;14.30;99.90;;;;;;5114722;28;20430;-77
2022/07/17 01:09:32;;;;;;;8.65;2.20;;;14.20;99.90;;;;;;5113916;28;20020;-77
2022/07/17 01:11:58;;;;;;;8.50;2.53;;;14.20;99.90;;;;;;5111750;28;20054;-79
2022/07/17 01:14:25;;;;;;;9.27;2.10;;;14.20;99.90;;;;;;5111261;28;20035;-77
2022/07/17 01:16:52;;;;;;;12.55;2.15;;;14.20;99.90;;;;;;5110850;28;20079;-75
2022/07/17 01:19:19;;;;;;;9.50;2.50;;;14.20;99.90;;;;;;5111992;28;20068;-76
2022/07/17 01:21:47;;;;;;;10.82;2.13;;;14.20;99.90;;;;;;5111238;28;20475;-75
2022/07/17 01:24:13;;;;;;;9.48;2.20;;;14.20;99.90;;;;;;5112226;28;20027;-78
2022/07/17 01:26:46;;;;;;;9.10;2.33;;;14.10;99.90;;;;;;5094071;28;20028;-76
2022/07/17 01:29:14;;;;;;;11.45;2.65;;;14.10;99.90;;;;;;5110590;28;20055;-74
2022/07/17 01:31:40;;;;;;;10.27;2.35;;;14.10;99.90;;;;;;5111883;28;20020;-78
2022/07/17 01:34:07;;;;;;;7.63;2.40;;;14.10;99.90;;;;;;5111237;28;20024;-76
2022/07/17 01:36:33;;;;;;;8.65;2.33;;;14.10;99.90;;;;;;5118295;28;20061;-80
2022/07/17 01:39:00;;;;;;;10.27;2.50;;;14.10;99.90;;;;;;5111578;28;20027;-78
2022/07/17 01:41:25;;;;;;;11.52;2.08;;;14.10;99.90;;;;;;5112069;28;20019;-77
2022/07/17 01:43:51;;;;;;;7.03;2.78;;;14.10;99.90;;;;;;5109657;28;20016;-76
2022/07/17 01:46:17;;;;;;;8.13;1.95;;;14.10;99.90;;;;;;5110602;28;20024;-77
2022/07/17 01:48:43;;;;;;;10.13;2.30;;;14.10;99.90;;;;;;5109915;28;20027;-79
2022/07/17 01:51:08;;;;;;;10.07;2.28;;;14.20;99.90;;;;;;5111089;28;20062;-78
2022/07/17 01:53:34;;;;;;;10.98;2.53;;;14.20;99.90;;;;;;5112754;28;20030;-76
2022/07/17 01:56:00;;;;;;;9.52;2.60;;;14.20;99.90;;;;;;5109377;28;20496;-76
2022/07/17 01:58:25;;;;;;;9.88;2.80;;;14.20;99.90;;;;;;5109190;28;20024;-77
2022/07/17 02:00:52;;;;;;;8.60;2.17;;;14.20;99.90;;;;;;5092380;28;20081;-76
2022/07/17 02:03:19;;;;;;;5.30;2.30;;;14.20;99.90;;;;;;5111007;28;20020;-76
2022/07/17 02:05:45;;;;;;;6.75;2.40;;;14.30;99.90;;;;;;5111478;28;20026;-77
2022/07/17 02:08:10;;;;;;;8.25;2.22;;;14.20;99.90;;;;;;5110549;28;20023;-76
2022/07/17 02:10:36;;;;;;;7.80;1.60;;;14.20;99.90;;;;;;5092470;28;20027;-75
2022/07/17 02:13:02;;;;;;;6.93;2.15;;;14.20;99.90;;;;;;5110674;28;20031;-77
2022/07/17 02:15:28;;;;;;;10.32;2.00;;;14.20;99.90;;;;;;5109700;28;20028;-76
2022/07/17 02:17:54;;;;;;;7.43;2.05;;;14.30;99.90;;;;;;5107437;28;20038;-76
2022/07/17 02:20:20;;;;;;;5.45;1.90;;;14.30;99.90;;;;;;5110482;28;20095;-76
2022/07/17 02:22:46;;;;;;;8.00;1.77;;;14.30;99.90;;;;;;5111018;28;20510;-77
2022/07/17 02:25:12;;;;;;;11.48;2.50;;;14.30;99.90;;;;;;5110640;28;20023;-76
2022/07/17 02:27:39;;;;;;;9.10;2.40;;;14.30;99.90;;;;;;5110213;28;20160;-77
2022/07/17 02:30:14;;;;;;;7.30;2.15;;;14.30;99.90;;;;;;5108990;28;20076;-75
2022/07/17 02:32:40;;;;;;;9.35;2.00;;;14.30;99.90;;;;;;5088555;28;20123;-76
2022/07/17 02:35:08;;;;;;;10.57;2.35;;;14.40;99.90;;;;;;5109036;28;20059;-76
2022/07/17 02:37:34;;;;;;;6.72;2.40;;;14.30;99.90;;;;;;5109758;28;20487;-79
2022/07/17 02:39:59;;;;;;;9.65;2.80;;;14.30;99.90;;;;;;5091132;28;20039;-76
2022/07/17 02:42:28;;;;;;;17.17;2.55;;;14.30;99.90;;;;;;5110112;28;20024;-77
2022/07/17 02:44:54;;;;;;;6.68;1.95;;;14.30;99.90;;;;;;5107251;28;20071;-78
2022/07/17 02:47:28;;;;;;;7.38;1.65;;;14.30;99.90;;;;;;5108177;28;20027;-77
2022/07/17 02:49:54;;;;;;;7.32;2.08;;;14.30;99.90;;;;;;5109990;28;20035;-78
2022/07/17 02:52:20;;;;;;;6.90;2.10;;;14.40;99.90;;;;;;5110740;28;20023;-76
2022/07/17 02:54:46;;;;;;;8.27;2.33;;;14.40;99.90;;;;;;5110495;28;20177;-76
2022/07/17 02:57:12;;;;;;;8.77;2.45;;;14.40;99.90;;;;;;5107939;28;20030;-76
2022/07/17 02:59:38;;;;;;;7.70;2.22;;;14.40;99.90;;;;;;5111439;28;20028;-77
2022/07/17 03:02:04;;;;;;;7.05;2.40;;;14.40;99.90;;;;;;5110687;28;20039;-77
2022/07/17 03:04:30;;;;;;;8.05;2.00;;;14.40;99.90;;;;;;5107718;28;20020;-76
2022/07/17 03:06:55;;;;;;;10.05;2.03;;;14.40;99.90;;;;;;5122128;28;20023;-76
2022/07/17 03:09:21;;;;;;;6.50;1.95;;;14.40;99.90;;;;;;5110590;28;20055;-77
2022/07/17 03:11:47;;;;;;;9.77;1.85;;;14.40;99.90;;;;;;5109528;28;20402;-78
2022/07/17 03:14:12;;;;;;;7.95;1.92;;;14.40;99.90;;;;;;5110375;28;20111;-77
2022/07/17 03:16:38;;;;;;;7.93;1.73;;;14.40;99.90;;;;;;5109680;28;20172;-76
2022/07/17 03:19:04;;;;;;;9.98;2.70;;;14.40;99.90;;;;;;5111091;28;20548;-77
2022/07/17 03:21:29;;;;;;;9.20;2.40;;;14.50;99.90;;;;;;5111501;28;20023;-77
2022/07/17 03:23:55;;;;;;;8.85;2.00;;;14.50;99.90;;;;;;5111620;28;20020;-77
2022/07/17 03:26:21;;;;;;;10.05;2.53;;;14.50;99.90;;;;;;5113508;28;20048;-77
2022/07/17 03:28:46;;;;;;;7.82;1.88;;;14.50;99.90;;;;;;5113902;28;20102;-76
2022/07/17 03:31:12;;;;;;;12.80;2.20;;;14.50;99.90;;;;;;5113415;28;20027;-77
2022/07/17 03:33:39;;;;;;;5.25;1.90;;;14.50;99.90;;;;;;5113759;28;20380;-76
2022/07/17 03:36:06;;;;;;;5.70;2.20;;;14.50;99.90;;;;;;5113057;28;20023;-77
2022/07/17 03:38:32;;;;;;;9.15;1.88;;;14.50;99.90;;;;;;5095612;28;20402;-77
2022/07/17 03:40:57;;;;;;;6.38;1.73;;;14.50;99.90;;;;;;5095891;28;20122;-77
2022/07/17 03:43:23;;;;;;;10.98;2.50;;;14.40;99.90;;;;;;5113665;28;20055;-78
2022/07/17 03:45:49;;;;;;;10.32;2.17;;;14.40;99.90;;;;;;5112225;28;20057;-78
2022/07/17 03:48:15;;;;;;;8.18;1.80;;;14.40;99.90;;;;;;5113346;28;20027;-77
2022/07/17 03:50:41;;;;;;;11.98;2.20;;;14.40;99.90;;;;;;5112533;28;20501;-77
2022/07/17 03:53:07;;;;;;;5.22;1.73;;;14.40;99.90;;;;;;5112513;28;20028;-76
2022/07/17 03:55:33;;;;;;;7.85;2.08;;;14.40;99.90;;;;;;5090292;28;20032;-77
2022/07/17 03:57:58;;;;;;;6.03;2.00;;;14.50;99.90;;;;;;5113793;28;20032;-77
2022/07/17 04:00:24;;;;;;;8.15;2.33;;;14.50;99.90;;;;;;5112514;28;20072;-77
2022/07/17 04:02:50;;;;;;;11.30;2.60;;;14.50;99.90;;;;;;5111407;28;20463;-77
2022/07/17 04:05:16;;;;;;;8.20;2.10;;;14.50;99.90;;;;;;5121204;27;20027;-76
2022/07/17 04:07:43;;;;;;;7.50;2.40;;;14.60;99.90;;;;;;5114359;28;20066;-79
2022/07/17 04:10:10;;;;;;;9.68;2.13;;;14.60;99.90;;;;;;5112191;28;20031;-77
2022/07/17 04:12:36;;;;;;;9.65;2.30;;;14.60;99.90;;;;;;5112469;28;20024;-77
2022/07/17 04:15:04;;;;;;;6.25;1.98;;;14.60;99.90;;;;;;5094353;28;20080;-77
2022/07/17 04:17:29;;;;;;;10.07;2.40;;;14.60;99.90;;;;;;5111336;28;20027;-77
2022/07/17 04:19:55;;;;;;;7.35;2.08;;;14.60;99.90;;;;;;5112448;28;20023;-77
2022/07/17 04:22:21;;;;;;;9.10;2.63;;;14.70;99.90;;;;;;5112886;28;20062;-77
2022/07/17 04:24:47;;;;;;;5.18;2.20;;;14.70;99.90;;;;;;5112797;28;20034;-76
2022/07/17 04:27:13;;;;;;;7.57;1.65;;;14.70;99.90;;;;;;5112282;28;20063;-77
2022/07/17 04:29:39;;;;;;;8.13;2.20;;;14.80;99.90;;;;;;5111623;28;20495;-77
2022/07/17 04:32:05;;;;;;;6.32;1.88;;;14.80;99.90;;;;;;5113498;28;20107;-76
2022/07/17 04:34:32;;;;;;;8.77;2.58;;;14.80;99.90;;;;;;5114817;28;20395;-78
2022/07/17 04:37:03;;;;;;;8.32;2.30;;;14.80;99.90;;;;;;5112108;28;20455;-78
2022/07/17 04:39:32;;;;;;;8.30;1.98;;;14.80;99.90;;;;;;5096868;28;20059;-77
2022/07/17 04:41:57;;;;;;;7.28;2.20;;;14.80;99.90;;;;;;5112070;28;20589;-76
2022/07/17 04:44:23;;;;;;;7.72;2.05;;;14.80;99.90;;;;;;5114919;28;20031;-78
2022/07/17 04:46:49;;;;;;;7.72;2.22;;;14.90;99.90;;;;;;5111367;28;20074;-77
2022/07/17 04:49:14;;;;;;;8.23;2.28;;;14.90;99.90;;;;;;5113501;28;20038;-77
2022/07/17 04:51:40;;;;;;;6.70;2.13;;;14.90;99.90;;;;;;5114237;28;20027;-77
2022/07/17 04:54:06;;;;;;;7.20;2.58;;;15.00;99.90;;;;;;5115459;28;20042;-77
2022/07/17 04:56:32;;;;;;;13.70;2.67;;;15.00;99.90;;;;;;5113140;28;20223;-77
2022/07/17 04:58:57;;;;;;;6.88;1.90;;;15.00;99.90;;;;;;5111862;28;20024;-79
2022/07/17 05:01:23;;;;;;;5.47;2.42;;;15.10;99.90;;;;;;5112768;28;20030;-77
2022/07/17 05:03:49;;;;;;;6.95;1.90;;;15.10;99.90;;;;;;5111583;28;20433;-78
2022/07/17 05:06:15;;;;;;;6.63;2.03;;;15.10;99.90;;;;;;5110999;28;20395;-77
2022/07/17 05:08:40;;;;;;;4.95;1.70;;;15.10;99.90;;;;;;5111085;28;20030;-77
2022/07/17 05:11:08;;;;;;;10.40;2.53;;;15.20;99.90;;;;;;5110332;28;20399;-78
2022/07/17 05:13:34;;;;;;;8.02;1.98;;;15.20;99.90;;;;;;5111893;28;20054;-77
2022/07/17 05:16:05;;;;;;;8.63;2.17;;;15.20;99.90;;;;;;5112160;28;20040;-78
2022/07/17 05:18:39;;;;;;;9.20;1.88;;;15.20;99.90;;;;;;5112034;28;20027;-78
2022/07/17 05:21:05;;;;;;;7.30;1.77;;;15.30;99.90;;;;;;5110506;28;20030;-79
2022/07/17 05:23:31;;;;;;;9.32;2.63;;;15.30;99.90;;;;;;5111861;28;20024;-76
2022/07/17 05:25:57;;;;;;;8.45;2.63;;;15.30;99.90;;;;;;5111165;28;20387;-77
2022/07/17 05:28:23;;;;;;;8.48;2.85;;;15.30;99.90;;;;;;5115945;28;20032;-76
2022/07/17 05:30:48;;;;;;;8.85;2.30;;;15.30;99.90;;;;;;5113692;28;20027;-77
2022/07/17 05:33:14;;;;;;;12.48;2.83;;;15.20;99.90;;;;;;5109654;28;20023;-77
2022/07/17 05:35:39;;;;;;;10.57;3.05;;;15.30;99.90;;;;;;5111066;28;20067;-78
2022/07/17 05:38:06;;;;;;;8.85;2.30;;;15.30;99.90;;;;;;5111538;28;20501;-76
2022/07/17 05:40:32;;;;;;;8.85;2.33;;;15.40;99.90;;;;;;5093477;28;20463;-78
2022/07/17 05:42:58;;;;;;;7.00;2.08;;;15.30;99.90;;;;;;5112085;28;20054;-77
2022/07/17 05:45:23;;;;;;;4.43;1.73;;;15.30;99.90;;;;;;5110567;28;20107;-76
2022/07/17 05:47:49;;;;;;;6.65;1.88;;;15.40;99.90;;;;;;5110813;28;20106;-78
2022/07/17 05:50:15;;;;;;;6.28;2.08;;;15.40;99.90;;;;;;5109623;28;20055;-78
2022/07/17 05:52:41;;;;;;;8.18;2.20;;;15.40;99.90;;;;;;5113350;28;20047;-79
2022/07/17 05:55:07;;;;;;;5.00;1.88;;;15.50;99.90;;;;;;5110703;28;20102;-76
2022/07/17 05:57:33;;;;;;;7.10;2.35;;;15.40;99.90;;;;;;5110967;28;20444;-76
2022/07/17 05:59:58;;;;;;;6.80;2.08;;;15.50;99.90;;;;;;5092401;28;20023;-76
2022/07/17 06:02:24;;;;;;;6.68;2.35;;;15.50;99.90;;;;;;5092862;28;20019;-77
2022/07/17 06:04:50;;;;;;;8.48;1.98;;;15.50;99.90;;;;;;5110725;28;20180;-76
2022/07/17 06:07:16;;;;;;;8.52;2.40;;;15.50;99.90;;;;;;5117879;28;20023;-76
2022/07/17 06:09:41;;;;;;;6.50;1.70;;;15.50;99.90;;;;;;5122919;28;20023;-77
2022/07/17 06:12:07;;;;;;;6.32;1.70;;;15.60;99.90;;;;;;5125766;28;20032;-77
2022/07/17 06:14:33;;;;;;;4.68;1.73;;;15.80;99.90;;;;;;5123458;28;20067;-76
2022/07/17 06:16:59;;;;;;;11.30;2.05;;;15.90;99.90;;;;;;5119817;28;20088;-77
2022/07/17 06:19:24;;;;;;;5.50;1.83;;;16.00;99.90;;;;;;5116615;28;20075;-76
2022/07/17 06:21:50;;;;;;;7.43;1.65;;;16.00;99.90;;;;;;5111539;28;20038;-76
2022/07/17 06:24:15;;;;;;;4.90;1.40;;;16.00;99.90;;;;;;5110317;28;20032;-76
2022/07/17 06:26:41;;;;;;;10.38;2.13;;;16.10;99.90;;;;;;5092980;28;20025;-78
2022/07/17 06:29:07;;;;;;;6.70;1.90;;;16.10;99.90;;;;;;5092167;28;20027;-78
2022/07/17 06:31:33;;;;;;;5.47;1.70;;;16.10;99.90;;;;;;5110230;28;20039;-79
2022/07/17 06:33:58;;;;;;;7.28;2.10;;;16.20;99.90;;;;;;5110102;28;20065;-78
2022/07/17 06:36:24;;;;;;;5.47;1.63;;;16.20;99.90;;;;;;5110464;28;20036;-76
2022/07/17 06:38:50;;;;;;;8.65;1.40;;;16.20;99.90;;;;;;5110885;28;20016;-77
2022/07/17 06:41:15;;;;;;;9.10;1.65;;;16.20;99.90;;;;;;5092743;28;20433;-77
2022/07/17 06:43:41;;;;;;;6.10;1.65;;;16.20;99.90;;;;;;5090763;28;20387;-78
2022/07/17 06:46:07;;;;;;;5.35;1.42;;;16.30;99.90;;;;;;5109484;28;20015;-78
2022/07/17 06:48:32;;;;;;;5.60;1.63;;;16.30;99.90;;;;;;5109561;28;20031;-77
2022/07/17 06:50:58;;;;;;;5.68;1.75;;;16.20;99.90;;;;;;5109897;28;20024;-77
2022/07/17 06:53:24;;;;;;;6.28;1.83;;;16.20;99.90;;;;;;5109407;28;20028;-78
2022/07/17 06:55:49;;;;;;;6.25;1.50;;;16.20;99.90;;;;;;5093024;28;20027;-77
2022/07/17 06:58:15;;;;;;;6.85;1.70;;;16.20;99.90;;;;;;5109475;28;20414;-78
2022/07/17 07:00:41;;;;;;;5.47;1.58;;;16.30;99.90;;;;;;5112801;28;20023;-77
2022/07/17 07:03:06;;;;;;;10.07;2.85;;;16.20;99.90;;;;;;5112840;28;20023;-77
2022/07/17 07:05:34;;;;;;;8.27;2.08;;;16.20;99.90;;;;;;5114826;28;20020;-77
2022/07/17 07:08:00;;;;;;;8.75;1.92;;;16.20;99.90;;;;;;5113038;28;20028;-78
2022/07/17 07:10:26;;;;;;;5.38;1.75;;;16.20;99.90;;;;;;5113627;28;20028;-77
2022/07/17 07:12:52;;;;;;;4.45;1.75;;;16.20;99.90;;;;;;5113192;28;20023;-79
2022/07/17 07:15:18;;;;;;;5.43;2.03;;;16.30;99.90;;;;;;5112836;28;20495;-78
2022/07/17 07:17:44;;;;;;;5.07;1.55;;;16.40;99.90;;;;;;5114056;28;20380;-78
2022/07/17 07:20:11;;;;;;;5.57;1.60;;;16.40;99.90;;;;;;5114521;28;20030;-77
2022/07/17 07:22:37;;;;;;;5.88;1.50;;;16.40;99.90;;;;;;5113553;28;20030;-77
2022/07/17 07:25:04;;;;;;;7.72;1.55;;;16.50;99.90;;;;;;5117366;28;20024;-78
2022/07/17 07:27:29;;;;;;;7.85;2.42;;;16.60;99.90;;;;;;5119891;28;20050;-77
2022/07/17 07:29:55;;;;;;;7.72;1.88;;;16.60;99.90;;;;;;5114615;28;20027;-77
2022/07/17 07:32:21;;;;;;;8.27;2.53;;;16.60;99.90;;;;;;5113843;28;20028;-77
2022/07/17 07:34:47;;;;;;;17.23;1.92;;;16.60;99.90;;;;;;5114323;28;20032;-77
2022/07/17 07:37:12;;;;;;;5.53;1.80;;;16.60;99.90;;;;;;5114786;28;20532;-77
2022/07/17 07:39:38;;;;;;;9.38;1.95;;;16.70;99.90;;;;;;5113168;28;20020;-77
2022/07/17 07:42:04;;;;;;;6.78;1.58;;;16.70;99.90;;;;;;5115555;28;20119;-77
2022/07/17 07:44:29;;;;;;;5.57;1.70;;;16.80;99.90;;;;;;5113239;28;20055;-77
2022/07/17 07:46:55;;;;;;;9.70;2.00;;;16.90;99.90;;;;;;5114459;28;20059;-77
2022/07/17 07:49:21;;;;;;;7.05;2.05;;;17.10;99.90;;;;;;5113529;28;20502;-76
2022/07/17 07:51:46;;;;;;;7.10;2.00;;;17.20;99.90;;;;;;5111494;28;20472;-77
2022/07/17 07:54:12;;;;;;;4.60;1.40;;;17.20;99.90;;;;;;5111863;28;20467;-76
2022/07/17 07:56:38;;;;;;;8.68;2.45;;;17.30;99.90;;;;;;5112618;28;20028;-77
2022/07/17 07:59:03;;;;;;;8.18;2.22;;;17.20;99.90;;;;;;5112410;28;20077;-76
2022/07/17 08:01:30;;;;;;;5.05;1.65;;;17.20;99.90;;;;;;5112332;28;20027;-77
2022/07/17 08:03:55;;;;;;;5.65;1.50;;;17.20;99.90;;;;;;5112679;28;20107;-77
2022/07/17 08:06:21;;;;;;;6.30;1.88;;;17.20;99.90;;;;;;5111478;28;20475;-77
2022/07/17 08:08:47;;;;;;;7.35;1.60;;;17.30;99.90;;;;;;5111402;28;20453;-77
2022/07/17 08:11:14;;;;;;;4.70;1.90;;;17.40;99.90;;;;;;5112493;28;20027;-78
2022/07/17 08:13:40;;;;;;;8.80;1.60;;;17.50;99.90;;;;;;5093696;28;20514;-78
2022/07/17 08:16:07;;;;;;;7.90;1.88;;;17.50;99.90;;;;;;5094403;28;20063;-76
2022/07/17 08:18:34;;;;;;;8.75;2.10;;;17.40;99.90;;;;;;5112314;28;20035;-77
2022/07/17 08:21:00;;;;;;;11.30;2.08;;;17.40;99.90;;;;;;5094485;28;20359;-77
2022/07/17 08:23:25;;;;;;;8.25;2.22;;;17.60;99.90;;;;;;5110716;28;20110;-77
2022/07/17 08:25:51;;;;;;;5.32;1.58;;;17.70;99.90;;;;;;5111669;28;20016;-77
2022/07/17 08:28:17;;;;;;;8.20;1.60;;;17.80;99.90;;;;;;5113356;28;20431;-76
2022/07/17 08:30:43;;;;;;;5.50;1.48;;;17.90;99.90;;;;;;5111841;28;20439;-78
2022/07/17 08:33:09;;;;;;;7.88;1.60;;;17.90;99.90;;;;;;5113942;28;20034;-77
2022/07/17 08:35:36;;;;;;;6.60;2.25;;;18.00;99.90;;;;;;5112238;28;20027;-78
2022/07/17 08:38:03;;;;;;;6.57;1.83;;;18.00;99.90;;;;;;5112410;28;20028;-78
2022/07/17 08:40:32;;;;;;;5.53;1.52;;;18.10;99.90;;;;;;5111217;28;20479;-77
2022/07/17 08:43:00;;;;;;;5.40;1.60;;;17.90;99.90;;;;;;5112803;28;20024;-76
2022/07/17 08:45:26;;;;;;;5.93;1.67;;;17.70;99.90;;;;;;5112820;28;20015;-77
2022/07/17 08:47:54;;;;;;;9.82;2.03;;;17.80;99.90;;;;;;5112493;28;20483;-77
2022/07/17 08:50:26;;;;;;;5.00;2.00;;;18.00;99.90;;;;;;5092451;28;20115;-76
2022/07/17 08:52:52;;;;;;;8.85;2.50;;;18.20;99.90;;;;;;5110762;28;20033;-77
2022/07/17 08:55:18;;;;;;;10.95;1.88;;;18.30;99.90;;;;;;5091997;28;20031;-76
2022/07/17 08:57:45;;;;;;;6.20;1.58;;;18.20;99.90;;;;;;5110750;28;20055;-76
2022/07/17 09:00:12;;;;;;;9.13;1.75;;;18.10;99.90;;;;;;5112289;28;20026;-78
2022/07/17 09:02:39;;;;;;;6.22;1.70;;;18.20;99.90;;;;;;5111345;28;20035;-78
2022/07/17 09:05:06;;;;;;;5.05;1.67;;;17.90;99.90;;;;;;5109852;28;20072;-78
2022/07/17 09:07:32;;;;;;;6.38;1.67;;;18.00;99.90;;;;;;5111556;28;20031;-77
2022/07/17 09:09:58;;;;;;;5.95;1.50;;;18.00;99.90;;;;;;5109011;28;20061;-78
2022/07/17 09:12:26;;;;;;;4.22;1.60;;;18.10;99.90;;;;;;5112066;28;20027;-76
2022/07/17 09:14:52;;;;;;;8.30;1.55;;;18.30;99.90;;;;;;5110975;28;20027;-77
2022/07/17 09:17:18;;;;;;;5.07;1.25;;;18.50;99.90;;;;;;5094008;28;20028;-78
2022/07/17 09:19:47;;;;;;;7.88;1.50;;;18.50;99.90;;;;;;5111458;28;20035;-77
2022/07/17 09:22:14;;;;;;;7.53;1.45;;;18.40;99.90;;;;;;5109701;28;20032;-78
2022/07/17 09:24:43;;;;;;;7.20;2.53;;;18.40;99.90;;;;;;5110086;28;20024;-77
2022/07/17 09:27:11;;;;;;;5.18;1.55;;;18.30;99.90;;;;;;5110945;28;20033;-78
2022/07/17 09:29:51;;;;;;;5.47;1.23;;;18.30;99.90;;;;;;5110177;28;20499;-78
2022/07/17 09:32:23;;;;;;;4.35;1.13;;;18.40;99.90;;;;;;5111508;28;20479;-78
2022/07/17 09:34:49;;;;;;;4.55;1.35;;;18.60;99.90;;;;;;5117425;28;20072;-79
2022/07/17 09:37:15;;;;;;;6.28;1.48;;;18.70;99.90;;;;;;5115250;28;20032;-78
2022/07/17 09:39:42;;;;;;;5.13;2.05;;;18.70;99.70;;;;;;5112969;28;20069;-79
2022/07/17 09:42:08;;;;;;;4.40;1.42;;;18.60;99.60;;;;;;5111782;28;20039;-77
2022/07/17 09:44:34;;;;;;;4.43;1.25;;;18.50;99.90;;;;;;5111862;28;20019;-77
2022/07/17 09:47:02;;;;;;;3.67;1.20;;;18.60;99.00;;;;;;5110590;28;20135;-78
2022/07/17 09:49:28;;;;;;;4.70;1.50;;;18.70;98.90;;;;;;5093280;28;20041;-77
2022/07/17 09:51:54;;;;;;;6.78;1.58;;;18.80;99.20;;;;;;5111364;28;20167;-77
2022/07/17 09:54:24;;;;;;;5.03;1.30;;;18.90;99.70;;;;;;5108829;28;20031;-77
2022/07/17 09:56:51;;;;;;;5.35;1.40;;;19.00;99.80;;;;;;5108324;28;20098;-76
2022/07/17 09:59:18;;;;;;;4.43;1.20;;;18.90;99.90;;;;;;5110550;28;20042;-76
2022/07/17 10:01:49;;;;;;;6.43;1.10;;;18.80;99.70;;;;;;5111344;28;20024;-78
2022/07/17 10:04:15;;;;;;;;;;;18.90;99.50;;;;;;5112228;28;20083;-77
2022/07/17 10:06:41;;;;;;;4.65;1.20;;;18.80;99.40;;;;;;5109147;28;19911;-77
2022/07/17 10:09:07;;;;;;;2.78;1.05;;;18.90;98.70;;;;;;5110109;28;20019;-78
2022/07/17 10:11:37;;;;;;;5.25;1.60;;;19.10;98.00;;;;;;5110218;28;20503;-77
2022/07/17 10:14:10;;;;;;;4.88;1.10;;;19.30;98.20;;;;;;5113553;28;20069;-77
2022/07/17 10:16:38;;;;;;;7.15;1.85;;;19.30;98.20;;;;;;5111394;28;20023;-78
2022/07/17 10:19:19;;;;;;;4.10;2.00;;;19.30;98.50;;;;;;5111363;28;20106;-77
2022/07/17 10:22:05;;;;;;;4.65;1.40;;;19.40;98.30;;;;;;5101760;28;20031;-77
2022/07/17 10:24:31;;;;;;;5.38;1.25;;;19.40;96.80;;;;;;5111628;28;20016;-77
2022/07/17 10:26:58;;;;;;;5.10;1.10;;;19.40;97.10;;;;;;5092057;28;20077;-80
2022/07/17 10:29:39;;;;;;;3.58;1.23;;;19.50;97.40;;;;;;5111205;28;20047;-77
2022/07/17 10:32:13;;;;;;;5.30;1.15;;;19.50;97.10;;;;;;5110527;28;20027;-79
2022/07/17 10:34:46;;;;;;;5.47;1.30;;;19.50;97.10;;;;;;5121809;27;20058;-77
2022/07/17 10:37:26;;;;;;;4.90;1.67;;;19.50;96.00;;;;;;5113192;28;20407;-78
2022/07/17 10:39:54;;;;;;;4.82;1.20;;;19.60;96.00;;;;;;5106544;28;20085;-78
2022/07/17 10:42:56;;;;;;;5.03;1.30;;;19.50;96.00;;;;;;5115598;28;20115;-78
2022/07/17 10:45:24;;;;;;;4.28;1.00;;;19.50;95.80;;;;;;5116297;28;20095;-78
2022/07/17 10:48:03;;;;;;;4.95;1.08;;;19.60;96.30;;;;;;5116320;28;20043;-76
2022/07/17 10:50:35;;;;;;;3.40;0.90;;;19.60;96.50;;;;;;5114579;28;20066;-78
2022/07/17 10:53:09;;;;;;;3.92;1.20;;;19.70;96.40;;;;;;5116563;28;20035;-78
2022/07/17 10:55:38;;;;;;;2.47;1.00;;;19.80;96.70;;;;;;5115799;28;20027;-79
2022/07/17 10:58:14;;;;;;;4.40;1.33;;;19.90;96.00;;;;;;5116651;28;20028;-78
2022/07/17 11:00:39;;;;;;;4.43;1.10;;;19.90;94.70;;;;;;5115841;28;20016;-78
2022/07/17 11:03:12;;;;;;;5.03;1.58;;;19.80;94.50;;;;;;5114607;28;20020;-78
2022/07/17 11:05:38;;;;;;;4.35;1.20;;;19.80;95.50;;;;;;5113240;28;20079;-78
2022/07/17 11:08:09;;;;;;;7.65;1.58;;;19.90;95.90;;;;;;5115963;28;20123;-76
2022/07/17 11:10:36;;;;;;;7.20;1.10;;;19.90;96.10;;;;;;5114959;28;20062;-76
2022/07/17 11:13:18;;;;;;;7.55;1.15;;;20.00;96.20;;;;;;5105120;28;20270;-79
2022/07/17 11:15:46;;;;;;;7.38;1.40;;;20.30;96.00;;;;;;5113570;28;20038;-78
2022/07/17 11:18:20;;;;;;;3.45;1.33;;;20.40;95.50;;;;;;5114293;28;20035;-77
2022/07/17 11:20:54;;;;;;;4.35;1.30;;;20.60;95.10;;;;;;5112994;28;20016;-79
2022/07/17 11:23:22;;;;;;;2.50;1.17;;;20.90;95.00;;;;;;5113376;28;20483;-77
2022/07/17 11:26:03;;;;;;;1.85;0.90;;;21.90;93.80;;;;;;5113926;28;20053;-77
2022/07/17 11:28:44;;;;;;;3.70;1.40;;;23.20;90.80;;;;;;5095716;28;20034;-77
2022/07/17 11:31:26;;;;;;;4.55;1.20;;;24.70;85.50;;;;;;5107522;28;20372;-76
2022/07/17 11:33:55;;;;;;;5.53;1.13;;;26.00;75.60;;;;;;5115279;28;20085;-78
2022/07/17 11:36:42;;;;;;;4.47;1.10;;;26.80;70.50;;;;;;5117241;28;20038;-77
2022/07/17 11:39:13;;;;;;;3.17;0.98;;;27.50;68.00;;;;;;5116529;28;20051;-78
2022/07/17 11:41:50;;;;;;;5.95;1.23;;;28.40;62.50;;;;;;5115823;28;20492;-78
2022/07/17 11:44:18;;;;;;;3.38;1.10;;;28.90;60.60;;;;;;5119580;28;20016;-79
2022/07/17 11:46:45;;;;;;;4.70;1.10;;;30.30;57.60;;;;;;5099279;28;20024;-78
2022/07/17 11:49:26;;;;;;;3.45;1.20;;;30.60;53.10;;;;;;5115704;28;20031;-78
2022/07/17 11:51:57;;;;;;;3.95;1.20;;;31.00;51.50;;;;;;5113206;28;20023;-77
2022/07/17 11:54:23;;;;;;;4.60;1.30;;;30.80;51.00;;;;;;5112985;28;20079;-77
2022/07/17 11:56:54;;;;;;;2.28;1.23;;;30.40;50.80;;;;;;5112552;28;20115;-77
2022/07/17 11:59:32;;;;;;;3.35;1.20;;;29.20;52.70;;;;;;5111910;28;20024;-78
2022/07/17 12:02:08;;;;;;;3.00;1.20;;;28.40;54.70;;;;;;5112662;28;20027;-79
2022/07/17 12:04:33;;;;;;;4.15;1.20;;;28.20;54.60;;;;;;5112081;28;20027;-78
2022/07/17 12:07:02;;;;;;;3.28;1.45;;;28.00;55.70;;;;;;5112702;28;20088;-79
2022/07/17 12:09:29;;;;;;;3.17;1.52;;;27.80;56.00;;;;;;5115631;28;20028;-79
2022/07/17 12:11:55;;;;;;;3.17;1.13;;;27.50;55.80;;;;;;5113838;28;20084;-78
2022/07/17 12:14:21;;;;;;;4.60;1.50;;;26.70;57.60;;;;;;5113127;28;20031;-79
2022/07/17 12:16:47;;;;;;;2.85;1.20;;;25.90;58.20;;;;;;5114398;28;20035;-77
2022/07/17 12:19:15;;;;;;;4.60;1.02;;;25.40;60.40;;;;;;5113006;28;20270;-78
2022/07/17 12:21:48;;;;;;;5.32;1.30;;;25.70;61.00;;;;;;5113407;28;20020;-79
2022/07/17 12:24:26;;;;;;;3.05;1.30;;;26.40;58.40;;;;;;5114572;28;20490;-78
2022/07/17 12:26:53;;;;;;;2.30;1.20;;;26.50;58.30;;;;;;5109001;28;20398;-77
2022/07/17 12:29:19;;;;;;;5.78;1.58;;;26.80;59.70;;;;;;5112158;28;20016;-78
2022/07/17 12:31:45;;;;;;;5.38;1.50;;;27.00;56.50;;;;;;5111319;28;20106;-79
2022/07/17 12:34:10;;;;;;;4.05;1.02;;;27.00;58.00;;;;;;5110508;28;20020;-78
2022/07/17 12:36:37;;;;;;;3.67;1.38;;;27.20;56.30;;;;;;5112008;28;20435;-77
2022/07/17 12:39:03;;;;;;;3.63;1.10;;;27.50;55.70;;;;;;5111007;28;20129;-79
2022/07/17 12:41:29;;;;;;;2.25;0.90;;;27.50;57.30;;;;;;5111884;28;20045;-78
2022/07/17 12:43:55;;;;;;;1.65;0.88;;;27.90;57.20;;;;;;5094039;28;20019;-78
2022/07/17 12:46:21;;;;;;;3.00;1.10;;;28.20;57.00;;;;;;5111896;28;20035;-78